createdAt,value
2022-08-27T00:02:07.363Z,100.00
2022-08-27T00:04:36.280Z,100.00
2022-08-27T00:07:06.194Z,100.00
2022-08-27T00:09:36.298Z,100.00
2022-08-27T00:12:05.652Z,100.00
2022-08-27T00:14:34.150Z,100.00
2022-08-27T00:17:05.513Z,100.00
2022-08-27T00:19:33.997Z,100.00
2022-08-27T00:22:02.167Z,100.00
2022-08-27T00:24:30.086Z,100.00
2022-08-27T00:26:58.491Z,100.00
2022-08-27T00:29:27.557Z,100.00
2022-08-27T00:31:59.825Z,100.00
2022-08-27T00:34:29.876Z,100.00
2022-08-27T00:36:57.823Z,100.00
2022-08-27T00:39:26.019Z,100.00
2022-08-27T00:41:54.212Z,100.00
2022-08-27T00:44:22.165Z,100.00
2022-08-27T00:46:53.848Z,100.00
2022-08-27T00:49:25.865Z,100.00
2022-08-27T00:51:58.539Z,100.00
2022-08-27T00:54:28.291Z,100.00
2022-08-27T00:56:58.346Z,100.00
2022-08-27T00:59:29.328Z,100.00
2022-08-27T01:02:14.633Z,100.00
2022-08-27T01:04:45.712Z,100.00
2022-08-27T01:07:15.599Z,100.00
2022-08-27T01:09:45.095Z,100.00
2022-08-27T01:12:13.070Z,100.00
2022-08-27T01:14:41.801Z,100.00
2022-08-27T01:17:11.428Z,100.00
2022-08-27T01:19:43.675Z,100.00
2022-08-27T01:22:23.304Z,100.00
2022-08-27T01:24:56.171Z,100.00
2022-08-27T01:27:32.281Z,100.00
2022-08-27T01:30:00.497Z,100.00
2022-08-27T01:32:31.413Z,100.00
2022-08-27T01:35:00.668Z,100.00
2022-08-27T01:37:29.671Z,100.00
2022-08-27T01:40:00.650Z,100.00
2022-08-27T01:42:32.610Z,100.00
2022-08-27T01:45:05.929Z,100.00
2022-08-27T01:47:35.193Z,100.00
2022-08-27T01:50:05.390Z,100.00
2022-08-27T01:52:33.296Z,100.00
2022-08-27T01:55:03.393Z,100.00
2022-08-27T01:57:32.458Z,100.00
2022-08-27T02:00:00.444Z,100.00
2022-08-27T02:02:28.632Z,100.00
2022-08-27T02:04:56.750Z,100.00
2022-08-27T02:07:24.805Z,100.00
2022-08-27T02:09:53.176Z,100.00
2022-08-27T02:12:22.449Z,100.00
2022-08-27T02:14:50.343Z,100.00
2022-08-27T02:17:18.554Z,100.00
2022-08-27T02:19:46.461Z,100.00
2022-08-27T02:22:14.385Z,100.00
2022-08-27T02:24:42.539Z,100.00
2022-08-27T02:27:10.561Z,100.00
2022-08-27T02:29:39.967Z,100.00
2022-08-27T02:32:22.805Z,100.00
2022-08-27T02:34:57.246Z,100.00
2022-08-27T02:37:26.363Z,100.00
2022-08-27T02:39:54.363Z,100.00
2022-08-27T02:42:22.770Z,100.00
2022-08-27T02:44:52.336Z,100.00
2022-08-27T02:47:20.234Z,100.00
2022-08-27T02:49:48.130Z,100.00
2022-08-27T02:52:17.213Z,100.00
2022-08-27T02:54:53.241Z,100.00
2022-08-27T02:57:21.395Z,100.00
2022-08-27T02:59:49.399Z,100.00
2022-08-27T03:02:19.088Z,100.00
2022-08-27T03:04:47.798Z,100.00
2022-08-27T03:07:18.999Z,100.00
2022-08-27T03:09:47.766Z,100.00
2022-08-27T03:12:16.058Z,100.00
2022-08-27T03:14:44.672Z,100.00
2022-08-27T03:17:30.844Z,100.00
2022-08-27T03:20:01.657Z,100.00
2022-08-27T03:22:29.934Z,100.00
2022-08-27T03:24:57.854Z,100.00
2022-08-27T03:27:25.755Z,100.00
2022-08-27T03:29:54.237Z,100.00
2022-08-27T03:32:22.185Z,100.00
2022-08-27T03:34:50.091Z,100.00
2022-08-27T03:37:19.658Z,100.00
2022-08-27T03:39:47.597Z,100.00
2022-08-27T03:42:15.558Z,100.00
2022-08-27T03:44:43.967Z,100.00
2022-08-27T03:47:12.037Z,100.00
2022-08-27T03:49:40.729Z,100.00
2022-08-27T03:52:10.237Z,100.00
2022-08-27T03:54:39.925Z,100.00
2022-08-27T03:57:08.254Z,100.00
2022-08-27T03:59:36.495Z,100.00
2022-08-27T04:02:05.574Z,100.00
2022-08-27T04:04:33.856Z,100.00
2022-08-27T04:07:02.064Z,100.00
2022-08-27T04:09:30.001Z,100.00
2022-08-27T04:11:59.333Z,100.00
2022-08-27T04:14:27.762Z,100.00
2022-08-27T04:16:56.661Z,100.00
2022-08-27T04:19:27.675Z,100.00
2022-08-27T04:22:00.770Z,100.00
2022-08-27T04:24:29.012Z,100.00
2022-08-27T04:26:57.276Z,100.00
2022-08-27T04:29:26.910Z,100.00
2022-08-27T04:31:55.333Z,100.00
2022-08-27T04:34:23.519Z,100.00
2022-08-27T04:36:52.096Z,100.00
2022-08-27T04:39:20.741Z,100.00
2022-08-27T04:41:50.538Z,100.00
2022-08-27T04:44:18.475Z,100.00
2022-08-27T04:46:49.301Z,100.00
2022-08-27T04:49:18.607Z,100.00
2022-08-27T04:51:47.670Z,100.00
2022-08-27T04:54:16.767Z,100.00
2022-08-27T04:56:45.083Z,100.00
2022-08-27T04:59:13.873Z,100.00
2022-08-27T05:01:42.758Z,100.00
2022-08-27T05:04:15.922Z,100.00
2022-08-27T05:06:45.450Z,100.00
2022-08-27T05:09:15.040Z,100.00
2022-08-27T05:11:43.921Z,100.00
2022-08-27T05:14:16.005Z,100.00
2022-08-27T05:16:44.604Z,100.00
2022-08-27T05:19:14.885Z,100.00
2022-08-27T05:21:48.184Z,100.00
2022-08-27T05:24:16.975Z,100.00
2022-08-27T05:26:45.998Z,100.00
2022-08-27T05:29:14.385Z,100.00
2022-08-27T05:31:42.880Z,100.00
2022-08-27T05:34:18.563Z,100.00
2022-08-27T05:36:53.585Z,100.00
2022-08-27T05:39:21.913Z,100.00
2022-08-27T05:41:49.856Z,100.00
2022-08-27T05:44:40.741Z,100.00
2022-08-27T05:47:06.177Z,100.00
2022-08-27T05:49:35.478Z,100.00
2022-08-27T05:52:03.866Z,100.00
2022-08-27T05:54:32.041Z,100.00
2022-08-27T05:56:59.952Z,100.00
2022-08-27T05:59:45.134Z,100.00
2022-08-27T06:02:13.565Z,100.00
2022-08-27T06:04:42.919Z,100.00
2022-08-27T06:07:10.981Z,100.00
2022-08-27T06:09:39.566Z,100.00
2022-08-27T06:12:09.113Z,100.00
2022-08-27T06:14:38.351Z,100.00
2022-08-27T06:17:07.342Z,100.00
2022-08-27T06:19:36.596Z,100.00
2022-08-27T06:22:09.813Z,100.00
2022-08-27T06:24:40.486Z,100.00
2022-08-27T06:27:10.446Z,100.00
2022-08-27T06:29:38.553Z,100.00
2022-08-27T06:32:06.914Z,100.00
2022-08-27T06:34:34.970Z,100.00
2022-08-27T06:37:02.958Z,100.00
2022-08-27T06:39:32.907Z,100.00
2022-08-27T06:42:00.907Z,100.00
2022-08-27T06:44:28.833Z,100.00
2022-08-27T06:46:56.989Z,100.00
2022-08-27T06:49:25.136Z,100.00
2022-08-27T06:51:53.661Z,100.00
2022-08-27T06:54:22.132Z,100.00
2022-08-27T06:56:51.435Z,100.00
2022-08-27T06:59:20.805Z,100.00
2022-08-27T07:01:51.397Z,100.00
2022-08-27T07:04:22.696Z,100.00
2022-08-27T07:07:01.172Z,100.00
2022-08-27T07:09:31.958Z,100.00
2022-08-27T07:12:02.094Z,100.00
2022-08-27T07:14:34.254Z,100.00
2022-08-27T07:17:07.024Z,100.00
2022-08-27T07:19:40.686Z,100.00
2022-08-27T07:22:09.505Z,100.00
2022-08-27T07:24:38.105Z,100.00
2022-08-27T07:27:07.926Z,100.00
2022-08-27T07:29:36.223Z,100.00
2022-08-27T07:32:04.809Z,100.00
2022-08-27T07:34:32.778Z,100.00
2022-08-27T07:37:01.020Z,100.00
2022-08-27T07:39:29.016Z,100.00
2022-08-27T07:42:15.879Z,100.00
2022-08-27T07:44:45.650Z,100.00
2022-08-27T07:47:13.703Z,100.00
2022-08-27T07:49:41.675Z,100.00
2022-08-27T07:52:09.900Z,100.00
2022-08-27T07:54:37.824Z,100.00
2022-08-27T07:57:06.095Z,100.00
2022-08-27T07:59:34.308Z,100.00
2022-08-27T08:02:03.842Z,100.00
2022-08-27T08:04:31.852Z,100.00
2022-08-27T08:07:00.093Z,100.00
2022-08-27T08:09:28.201Z,100.00
2022-08-27T08:11:56.187Z,100.00
2022-08-27T08:14:24.351Z,100.00
2022-08-27T08:16:52.328Z,100.00
2022-08-27T08:19:22.156Z,100.00
2022-08-27T08:21:54.021Z,100.00
2022-08-27T08:24:27.725Z,100.00
2022-08-27T08:26:55.903Z,100.00
2022-08-27T08:29:23.811Z,100.00
2022-08-27T08:31:51.780Z,100.00
2022-08-27T08:34:21.374Z,100.00
2022-08-27T08:36:54.597Z,100.00
2022-08-27T08:39:24.510Z,100.00
2022-08-27T08:41:55.505Z,100.00
2022-08-27T08:44:32.487Z,100.00
2022-08-27T08:47:05.571Z,100.00
2022-08-27T08:49:41.849Z,100.00
2022-08-27T08:52:31.108Z,100.00
2022-08-27T08:55:09.488Z,97.64
2022-08-27T08:57:42.040Z,94.01
2022-08-27T09:00:13.373Z,91.39
2022-08-27T09:02:43.170Z,92.46
2022-08-27T09:05:12.762Z,92.41
2022-08-27T09:07:50.692Z,89.28
2022-08-27T09:10:25.922Z,92.53
2022-08-27T09:13:00.051Z,89.85
2022-08-27T09:15:31.728Z,91.74
2022-08-27T09:18:07.979Z,90.63
2022-08-27T09:20:48.384Z,91.87
2022-08-27T09:23:25.220Z,92.23
2022-08-27T09:25:53.397Z,91.11
2022-08-27T09:28:41.899Z,94.61
2022-08-27T09:31:13.440Z,98.51
2022-08-27T09:33:55.628Z,96.99
2022-08-27T09:36:26.785Z,88.88
2022-08-27T09:38:58.157Z,88.36
2022-08-27T09:41:31.166Z,88.33
2022-08-27T09:44:01.157Z,87.88
2022-08-27T09:46:30.043Z,89.00
2022-08-27T09:48:58.031Z,86.93
2022-08-27T09:51:29.346Z,85.11
2022-08-27T09:54:00.608Z,87.56
2022-08-27T09:56:32.212Z,83.29
2022-08-27T09:59:05.460Z,80.17
2022-08-27T10:01:35.763Z,83.26
2022-08-27T10:04:07.829Z,80.72
2022-08-27T10:06:37.474Z,79.84
2022-08-27T10:09:11.391Z,82.04
2022-08-27T10:11:45.799Z,81.23
2022-08-27T10:14:20.373Z,85.09
2022-08-27T10:16:59.537Z,84.03
2022-08-27T10:19:43.643Z,78.69
2022-08-27T10:22:22.895Z,76.53
2022-08-27T10:25:03.172Z,76.94
2022-08-27T10:27:39.632Z,78.27
2022-08-27T10:30:09.989Z,80.63
2022-08-27T10:32:55.107Z,81.29
2022-08-27T10:35:28.200Z,75.13
2022-08-27T10:38:11.726Z,73.95
2022-08-27T10:40:46.825Z,74.44
2022-08-27T10:43:32.837Z,75.04
2022-08-27T10:46:12.635Z,71.91
2022-08-27T10:48:47.618Z,66.71
2022-08-27T10:51:20.769Z,68.08
2022-08-27T10:53:58.225Z,67.10
2022-08-27T10:56:33.012Z,67.52
2022-08-27T10:59:11.619Z,68.26
2022-08-27T11:01:49.236Z,68.28
2022-08-27T11:04:23.287Z,69.54
2022-08-27T11:06:56.864Z,67.75
2022-08-27T11:09:35.546Z,66.53
2022-08-27T11:12:14.163Z,65.71
2022-08-27T11:14:49.279Z,67.42
2022-08-27T11:17:22.912Z,66.79
2022-08-27T11:19:55.659Z,68.45
2022-08-27T11:22:30.980Z,66.05
2022-08-27T11:25:09.110Z,66.27
2022-08-27T11:27:38.498Z,68.87
2022-08-27T11:30:08.943Z,64.27
2022-08-27T11:32:50.943Z,64.88
2022-08-27T11:35:24.128Z,67.42
2022-08-27T11:38:25.319Z,67.24
2022-08-27T11:41:08.734Z,66.47
2022-08-27T11:43:38.646Z,65.85
2022-08-27T11:46:09.317Z,65.67
2022-08-27T11:48:41.045Z,64.14
2022-08-27T11:51:14.421Z,63.14
2022-08-27T11:53:59.321Z,61.49
2022-08-27T11:56:40.636Z,65.37
2022-08-27T11:59:21.275Z,62.95
2022-08-27T12:01:50.286Z,62.90
2022-08-27T12:04:25.592Z,64.13
2022-08-27T12:07:01.578Z,65.50
2022-08-27T12:09:30.579Z,63.04
2022-08-27T12:12:07.524Z,64.73
2022-08-27T12:14:46.901Z,65.23
2022-08-27T12:17:26.491Z,63.22
2022-08-27T12:20:07.238Z,62.43
2022-08-27T12:23:09.560Z,61.71
2022-08-27T12:25:37.765Z,63.10
2022-08-27T12:28:09.228Z,61.28
2022-08-27T12:30:40.152Z,60.53
2022-08-27T12:33:20.200Z,63.14
2022-08-27T12:35:50.073Z,61.77
2022-08-27T12:38:21.188Z,58.94
2022-08-27T12:40:51.825Z,60.10
2022-08-27T12:43:23.128Z,58.48
2022-08-27T12:45:53.626Z,61.03
2022-08-27T12:48:25.524Z,62.14
2022-08-27T12:50:55.792Z,61.63
2022-08-27T12:53:41.116Z,60.16
2022-08-27T12:56:31.331Z,62.90
2022-08-27T12:59:11.576Z,59.14
2022-08-27T13:01:54.466Z,60.05
2022-08-27T13:04:25.787Z,59.72
2022-08-27T13:06:54.596Z,60.42
2022-08-27T13:09:29.170Z,59.40
2022-08-27T13:11:59.477Z,59.06
2022-08-27T13:14:35.570Z,61.35
2022-08-27T13:17:07.029Z,57.41
2022-08-27T13:19:36.950Z,57.47
2022-08-27T13:22:07.173Z,57.86
2022-08-27T13:24:37.475Z,56.07
2022-08-27T13:27:07.541Z,57.57
2022-08-27T13:29:37.412Z,59.41
2022-08-27T13:32:06.352Z,59.89
2022-08-27T13:34:38.966Z,60.28
2022-08-27T13:37:21.704Z,60.11
2022-08-27T13:39:53.983Z,58.02
2022-08-27T13:42:22.778Z,55.36
2022-08-27T13:44:53.815Z,55.86
2022-08-27T13:47:24.018Z,55.96
2022-08-27T13:49:53.122Z,57.49
2022-08-27T13:52:28.349Z,56.99
2022-08-27T13:55:05.776Z,57.31
2022-08-27T13:57:43.450Z,57.81
2022-08-27T14:00:18.285Z,57.23
2022-08-27T14:02:55.805Z,56.93
2022-08-27T14:05:31.946Z,57.66
2022-08-27T14:08:03.089Z,57.75
2022-08-27T14:10:34.659Z,56.83
2022-08-27T14:13:06.402Z,57.91
2022-08-27T14:15:38.860Z,58.98
2022-08-27T14:18:09.128Z,59.54
2022-08-27T14:20:37.710Z,59.02
2022-08-27T14:23:05.615Z,60.41
2022-08-27T14:25:34.566Z,60.40
2022-08-27T14:28:03.091Z,61.17
2022-08-27T14:30:31.438Z,59.61
2022-08-27T14:33:02.550Z,60.02
2022-08-27T14:35:34.491Z,60.90
2022-08-27T14:38:09.481Z,60.94
2022-08-27T14:40:37.778Z,61.01
2022-08-27T14:43:07.349Z,59.93
2022-08-27T14:45:37.122Z,59.73
2022-08-27T14:48:18.246Z,58.41
2022-08-27T14:50:47.003Z,58.24
2022-08-27T14:53:15.190Z,59.60
2022-08-27T14:55:43.127Z,59.84
2022-08-27T14:58:19.656Z,62.05
2022-08-27T15:00:48.311Z,61.78
2022-08-27T15:03:18.549Z,62.97
2022-08-27T15:05:46.684Z,60.70
2022-08-27T15:08:15.970Z,59.63
2022-08-27T15:10:44.200Z,60.11
2022-08-27T15:13:14.046Z,59.69
2022-08-27T15:15:42.275Z,60.01
2022-08-27T15:18:10.593Z,60.38
2022-08-27T15:20:41.380Z,61.46
2022-08-27T15:23:11.995Z,60.86
2022-08-27T15:25:40.377Z,59.96
2022-08-27T15:28:08.493Z,61.06
2022-08-27T15:30:37.060Z,60.02
2022-08-27T15:33:06.981Z,60.04
2022-08-27T15:35:35.718Z,60.84
2022-08-27T15:38:05.443Z,60.15
2022-08-27T15:40:36.729Z,61.00
2022-08-27T15:43:07.577Z,60.86
2022-08-27T15:45:36.666Z,62.71
2022-08-27T15:48:05.248Z,62.64
2022-08-27T15:50:34.408Z,62.73
2022-08-27T15:53:06.314Z,62.66
2022-08-27T15:55:38.013Z,61.98
2022-08-27T15:58:08.377Z,61.27
2022-08-27T16:00:38.460Z,61.69
2022-08-27T16:03:11.229Z,61.55
2022-08-27T16:05:42.064Z,61.62
2022-08-27T16:08:12.085Z,62.17
2022-08-27T16:10:40.438Z,63.41
2022-08-27T16:13:08.361Z,63.67
2022-08-27T16:15:40.488Z,63.83
2022-08-27T16:18:10.608Z,63.73
2022-08-27T16:20:38.970Z,63.68
2022-08-27T16:23:06.863Z,64.10
2022-08-27T16:25:36.184Z,64.68
2022-08-27T16:28:04.948Z,64.40
2022-08-27T16:30:33.083Z,65.25
2022-08-27T16:33:01.443Z,65.72
2022-08-27T16:35:29.639Z,64.78
2022-08-27T16:37:57.507Z,65.12
2022-08-27T16:40:26.780Z,65.30
2022-08-27T16:42:56.361Z,64.78
2022-08-27T16:45:25.715Z,64.55
2022-08-27T16:48:11.117Z,65.37
2022-08-27T16:50:40.621Z,65.72
2022-08-27T16:53:12.164Z,67.27
2022-08-27T16:55:42.407Z,68.24
2022-08-27T16:58:17.729Z,69.46
2022-08-27T17:00:46.910Z,70.16
2022-08-27T17:03:15.241Z,70.78
2022-08-27T17:05:43.410Z,70.38
2022-08-27T17:08:12.667Z,70.87
2022-08-27T17:10:45.561Z,72.46
2022-08-27T17:13:17.313Z,74.27
2022-08-27T17:15:47.083Z,76.93
2022-08-27T17:18:16.888Z,77.13
2022-08-27T17:20:46.433Z,78.21
2022-08-27T17:23:21.267Z,79.18
2022-08-27T17:25:49.866Z,79.44
2022-08-27T17:28:19.676Z,79.55
2022-08-27T17:30:47.852Z,80.67
2022-08-27T17:33:23.856Z,81.79
2022-08-27T17:35:51.861Z,82.25
2022-08-27T17:38:20.024Z,82.18
2022-08-27T17:40:51.829Z,83.23
2022-08-27T17:43:23.252Z,83.40
2022-08-27T17:45:51.341Z,84.44
2022-08-27T17:48:22.698Z,84.58
2022-08-27T17:50:54.014Z,85.34
2022-08-27T17:53:21.984Z,86.09
2022-08-27T17:55:49.957Z,87.71
2022-08-27T17:58:18.160Z,89.50
2022-08-27T18:00:47.853Z,90.38
2022-08-27T18:03:17.892Z,90.86
2022-08-27T18:05:47.055Z,91.19
2022-08-27T18:08:16.071Z,92.62
2022-08-27T18:10:45.270Z,93.67
2022-08-27T18:13:14.899Z,94.38
2022-08-27T18:15:43.692Z,95.30
2022-08-27T18:18:13.611Z,94.42
2022-08-27T18:20:42.793Z,94.34
2022-08-27T18:23:13.295Z,93.94
2022-08-27T18:25:42.976Z,94.42
2022-08-27T18:28:13.019Z,95.49
2022-08-27T18:30:43.884Z,95.19
2022-08-27T18:33:14.467Z,95.29
2022-08-27T18:35:43.320Z,95.82
2022-08-27T18:38:11.435Z,96.96
2022-08-27T18:40:44.582Z,97.66
2022-08-27T18:43:12.878Z,98.19
2022-08-27T18:45:41.326Z,99.39
2022-08-27T18:48:14.936Z,100.00
2022-08-27T18:50:46.266Z,100.00
2022-08-27T18:53:16.148Z,100.00
2022-08-27T18:55:44.938Z,100.00
2022-08-27T18:58:13.330Z,100.00
2022-08-27T19:00:43.684Z,100.00
2022-08-27T19:03:16.976Z,100.00
2022-08-27T19:05:46.057Z,100.00
2022-08-27T19:08:15.760Z,100.00
2022-08-27T19:10:46.033Z,100.00
2022-08-27T19:13:14.490Z,100.00
2022-08-27T19:15:46.235Z,100.00
2022-08-27T19:18:15.819Z,100.00
2022-08-27T19:20:43.692Z,100.00
2022-08-27T19:23:11.629Z,100.00
2022-08-27T19:25:39.932Z,100.00
2022-08-27T19:28:07.904Z,100.00
2022-08-27T19:30:36.785Z,100.00
2022-08-27T19:33:05.060Z,100.00
2022-08-27T19:35:35.577Z,100.00
2022-08-27T19:38:03.679Z,100.00
2022-08-27T19:40:31.950Z,100.00
2022-08-27T19:43:00.068Z,100.00
2022-08-27T19:45:28.165Z,100.00
2022-08-27T19:47:56.663Z,100.00
2022-08-27T19:50:24.886Z,100.00
2022-08-27T19:52:54.385Z,100.00
2022-08-27T19:55:22.524Z,100.00
2022-08-27T19:57:50.881Z,100.00
2022-08-27T20:00:21.858Z,100.00
2022-08-27T20:02:50.724Z,100.00
2022-08-27T20:05:20.646Z,100.00
2022-08-27T20:07:50.124Z,100.00
2022-08-27T20:10:21.667Z,100.00
2022-08-27T20:12:50.131Z,100.00
2022-08-27T20:15:19.471Z,100.00
2022-08-27T20:17:47.843Z,100.00
2022-08-27T20:20:22.538Z,100.00
2022-08-27T20:22:50.468Z,100.00
2022-08-27T20:25:20.551Z,100.00
2022-08-27T20:27:48.684Z,100.00
2022-08-27T20:30:17.749Z,100.00
2022-08-27T20:32:47.175Z,100.00
2022-08-27T20:35:16.073Z,100.00
2022-08-27T20:37:44.254Z,100.00
2022-08-27T20:40:15.075Z,100.00
2022-08-27T20:42:45.384Z,100.00
2022-08-27T20:45:14.391Z,100.00
2022-08-27T20:47:43.389Z,100.00
2022-08-27T20:50:12.838Z,100.00
2022-08-27T20:52:40.922Z,100.00
2022-08-27T20:55:10.404Z,100.00
2022-08-27T20:58:01.134Z,100.00
2022-08-27T21:00:34.440Z,100.00
2022-08-27T21:03:02.884Z,100.00
2022-08-27T21:05:34.136Z,100.00
2022-08-27T21:08:02.785Z,100.00
2022-08-27T21:10:31.199Z,100.00
2022-08-27T21:13:02.197Z,100.00
2022-08-27T21:15:34.102Z,100.00
2022-08-27T21:18:02.023Z,100.00
2022-08-27T21:20:29.990Z,100.00
2022-08-27T21:22:58.303Z,100.00
2022-08-27T21:25:27.460Z,100.00
2022-08-27T21:27:56.830Z,100.00
2022-08-27T21:30:26.228Z,100.00
2022-08-27T21:32:56.081Z,100.00
2022-08-27T21:35:26.479Z,100.00
2022-08-27T21:37:54.922Z,100.00
2022-08-27T21:40:25.133Z,100.00
2022-08-27T21:42:53.145Z,98.93
2022-08-27T21:45:21.343Z,97.46
2022-08-27T21:47:51.762Z,97.74
2022-08-27T21:50:22.141Z,98.78
2022-08-27T21:52:50.487Z,99.48
2022-08-27T21:55:19.445Z,100.00
2022-08-27T21:57:47.685Z,100.00
2022-08-27T22:00:37.971Z,100.00
2022-08-27T22:03:10.219Z,100.00
2022-08-27T22:05:42.368Z,100.00
2022-08-27T22:08:11.454Z,100.00
2022-08-27T22:10:41.197Z,100.00
2022-08-27T22:13:09.140Z,100.00
2022-08-27T22:15:37.596Z,100.00
2022-08-27T22:18:06.315Z,100.00
2022-08-27T22:20:34.538Z,100.00
2022-08-27T22:23:06.004Z,100.00
2022-08-27T22:25:34.311Z,100.00
2022-08-27T22:28:02.624Z,100.00
2022-08-27T22:30:30.753Z,100.00
2022-08-27T22:32:58.865Z,100.00
2022-08-27T22:35:27.706Z,100.00
2022-08-27T22:37:57.118Z,100.00
2022-08-27T22:40:30.167Z,100.00
2022-08-27T22:42:59.558Z,100.00
2022-08-27T22:45:28.904Z,100.00
2022-08-27T22:47:57.349Z,100.00
2022-08-27T22:50:25.951Z,100.00
2022-08-27T22:52:54.265Z,100.00
2022-08-27T22:55:24.099Z,100.00
2022-08-27T22:57:55.239Z,100.00
2022-08-27T23:00:27.428Z,100.00
2022-08-27T23:02:55.862Z,100.00
2022-08-27T23:05:24.827Z,100.00
2022-08-27T23:07:55.216Z,100.00
2022-08-27T23:10:25.278Z,100.00
2022-08-27T23:12:55.728Z,100.00
2022-08-27T23:15:25.873Z,100.00
2022-08-27T23:17:54.380Z,100.00
2022-08-27T23:20:24.518Z,100.00
2022-08-27T23:22:53.826Z,100.00
2022-08-27T23:25:43.266Z,100.00
2022-08-27T23:28:15.092Z,100.00
2022-08-27T23:30:44.394Z,100.00
2022-08-27T23:33:12.729Z,100.00
2022-08-27T23:35:43.293Z,100.00
2022-08-27T23:38:11.785Z,100.00
2022-08-27T23:40:39.965Z,100.00
2022-08-27T23:43:07.995Z,100.00
2022-08-27T23:45:40.609Z,100.00
2022-08-27T23:48:08.921Z,100.00
2022-08-27T23:50:37.717Z,100.00
2022-08-27T23:53:07.495Z,100.00
2022-08-27T23:55:36.380Z,100.00
2022-08-27T23:58:04.757Z,100.00
